createdAt,value
2022-10-18T00:02:14.288Z,14.37
2022-10-18T00:04:40.918Z,14.36
2022-10-18T00:07:07.580Z,14.27
2022-10-18T00:09:34.231Z,13.92
2022-10-18T00:12:00.862Z,14.14
2022-10-18T00:14:27.463Z,14.21
2022-10-18T00:16:54.044Z,14.14
2022-10-18T00:19:20.629Z,14.08
2022-10-18T00:21:50.300Z,14.00
2022-10-18T00:24:17.170Z,14.06
2022-10-18T00:26:43.963Z,14.02
2022-10-18T00:29:14.019Z,13.97
2022-10-18T00:31:40.947Z,13.95
2022-10-18T00:34:12.231Z,13.96
2022-10-18T00:36:39.137Z,13.95
2022-10-18T00:39:07.357Z,13.93
2022-10-18T00:41:36.056Z,13.90
2022-10-18T00:44:13.184Z,13.57
2022-10-18T00:46:42.523Z,13.31
2022-10-18T00:49:17.159Z,13.80
2022-10-18T00:51:50.456Z,13.76
2022-10-18T00:54:19.386Z,13.62
2022-10-18T00:56:46.075Z,13.63
2022-10-18T00:59:15.057Z,13.76
2022-10-18T01:01:41.770Z,13.75
2022-10-18T01:04:08.435Z,13.76
2022-10-18T01:06:50.144Z,13.66
2022-10-18T01:09:35.033Z,13.70
2022-10-18T01:12:16.251Z,13.65
2022-10-18T01:15:01.598Z,13.69
2022-10-18T01:17:44.301Z,13.65
2022-10-18T01:20:37.969Z,13.56
2022-10-18T01:23:15.589Z,13.59
2022-10-18T01:25:49.967Z,13.60
2022-10-18T01:28:31.786Z,13.52
2022-10-18T01:31:03.695Z,13.53
2022-10-18T01:33:37.650Z,13.20
2022-10-18T01:36:17.418Z,13.41
2022-10-18T01:38:45.649Z,13.42
2022-10-18T01:41:15.780Z,13.42
2022-10-18T01:43:45.339Z,13.47
2022-10-18T01:46:17.482Z,13.54
2022-10-18T01:48:44.382Z,13.54
2022-10-18T01:51:11.506Z,13.31
2022-10-18T01:53:38.135Z,13.44
2022-10-18T01:56:24.701Z,13.49
2022-10-18T01:59:11.131Z,13.56
2022-10-18T02:01:52.647Z,13.47
2022-10-18T02:04:37.710Z,13.47
2022-10-18T02:07:13.139Z,13.16
2022-10-18T02:09:50.452Z,13.34
2022-10-18T02:12:18.691Z,13.39
2022-10-18T02:14:46.163Z,13.41
2022-10-18T02:17:13.850Z,13.25
2022-10-18T02:19:50.330Z,13.32
2022-10-18T02:22:17.619Z,13.35
2022-10-18T02:24:48.260Z,13.35
2022-10-18T02:27:14.863Z,13.28
2022-10-18T02:29:42.875Z,13.23
2022-10-18T02:32:18.067Z,13.34
2022-10-18T02:34:51.382Z,13.34
2022-10-18T02:37:18.683Z,13.28
2022-10-18T02:39:51.335Z,13.28
2022-10-18T02:42:17.970Z,13.33
2022-10-18T02:44:44.523Z,13.33
2022-10-18T02:47:12.167Z,13.25
2022-10-18T02:49:38.703Z,13.23
2022-10-18T02:52:05.253Z,13.28
2022-10-18T02:54:31.933Z,13.24
2022-10-18T02:56:58.463Z,13.28
2022-10-18T02:59:24.946Z,13.18
2022-10-18T03:01:51.513Z,13.21
2022-10-18T03:04:18.226Z,13.16
2022-10-18T03:06:44.792Z,13.19
2022-10-18T03:09:11.497Z,13.21
2022-10-18T03:11:38.056Z,13.19
2022-10-18T03:14:04.619Z,12.86
2022-10-18T03:16:31.502Z,13.14
2022-10-18T03:18:58.015Z,13.09
2022-10-18T03:21:24.538Z,13.09
2022-10-18T03:23:51.052Z,13.11
2022-10-18T03:26:17.840Z,13.18
2022-10-18T03:28:44.530Z,13.05
2022-10-18T03:31:11.152Z,13.13
2022-10-18T03:33:37.842Z,12.89
2022-10-18T03:36:04.520Z,12.93
2022-10-18T03:38:31.209Z,13.06
2022-10-18T03:40:57.703Z,12.96
2022-10-18T03:43:24.401Z,12.99
2022-10-18T03:45:52.175Z,12.97
2022-10-18T03:48:18.773Z,12.87
2022-10-18T03:50:45.396Z,12.94
2022-10-18T03:53:12.065Z,12.91
2022-10-18T03:55:38.683Z,12.92
2022-10-18T03:58:05.626Z,12.97
2022-10-18T04:00:32.310Z,12.76
2022-10-18T04:02:58.800Z,12.97
2022-10-18T04:05:27.786Z,13.03
2022-10-18T04:07:54.943Z,13.05
2022-10-18T04:10:21.753Z,13.00
2022-10-18T04:12:48.293Z,12.99
2022-10-18T04:15:14.953Z,13.00
2022-10-18T04:17:42.007Z,13.01
2022-10-18T04:20:09.002Z,13.02
2022-10-18T04:22:35.627Z,13.06
2022-10-18T04:25:02.164Z,13.03
2022-10-18T04:27:28.883Z,13.14
2022-10-18T04:29:55.563Z,13.15
2022-10-18T04:32:22.303Z,13.16
2022-10-18T04:34:48.835Z,13.17
2022-10-18T04:37:15.335Z,13.19
2022-10-18T04:39:49.779Z,13.21
2022-10-18T04:42:19.536Z,13.19
2022-10-18T04:44:46.183Z,13.23
2022-10-18T04:47:12.685Z,13.19
2022-10-18T04:49:39.542Z,13.20
2022-10-18T04:52:06.439Z,13.13
2022-10-18T04:54:32.982Z,13.10
2022-10-18T04:56:59.562Z,13.16
2022-10-18T04:59:26.098Z,12.80
2022-10-18T05:01:52.767Z,13.12
2022-10-18T05:04:19.334Z,13.04
2022-10-18T05:06:45.958Z,13.06
2022-10-18T05:09:12.649Z,13.23
2022-10-18T05:11:39.191Z,13.21
2022-10-18T05:14:05.792Z,13.24
2022-10-18T05:16:33.103Z,13.17
2022-10-18T05:18:59.606Z,13.22
2022-10-18T05:21:26.134Z,13.24
2022-10-18T05:23:56.270Z,13.21
2022-10-18T05:26:22.792Z,13.29
2022-10-18T05:28:50.509Z,13.31
2022-10-18T05:31:17.445Z,13.30
2022-10-18T05:33:44.037Z,13.30
2022-10-18T05:36:11.079Z,13.05
2022-10-18T05:38:45.484Z,13.42
2022-10-18T05:41:12.648Z,13.41
2022-10-18T05:43:39.703Z,13.37
2022-10-18T05:46:13.493Z,13.42
2022-10-18T05:48:41.959Z,13.46
2022-10-18T05:51:08.486Z,13.49
2022-10-18T05:53:37.381Z,13.15
2022-10-18T05:56:05.328Z,13.54
2022-10-18T05:58:31.998Z,13.63
2022-10-18T06:01:00.563Z,13.65
2022-10-18T06:03:27.758Z,13.64
2022-10-18T06:05:59.739Z,13.68
2022-10-18T06:08:26.300Z,13.71
2022-10-18T06:10:53.182Z,13.74
2022-10-18T06:13:19.716Z,13.41
2022-10-18T06:15:46.353Z,13.76
2022-10-18T06:18:13.063Z,13.73
2022-10-18T06:20:39.655Z,13.62
2022-10-18T06:23:06.773Z,13.73
2022-10-18T06:25:33.319Z,13.67
2022-10-18T06:27:59.852Z,13.82
2022-10-18T06:30:26.427Z,13.89
2022-10-18T06:32:52.978Z,13.89
2022-10-18T06:35:19.524Z,13.93
2022-10-18T06:37:46.076Z,13.96
2022-10-18T06:40:12.829Z,13.98
2022-10-18T06:42:39.400Z,14.02
2022-10-18T06:45:06.627Z,14.06
2022-10-18T06:47:33.150Z,14.09
2022-10-18T06:49:59.901Z,14.20
2022-10-18T06:52:26.480Z,14.26
2022-10-18T06:54:53.847Z,14.41
2022-10-18T06:57:21.636Z,14.56
2022-10-18T06:59:49.960Z,14.66
2022-10-18T07:02:17.398Z,14.65
2022-10-18T07:04:44.066Z,14.78
2022-10-18T07:07:10.609Z,14.85
2022-10-18T07:09:37.185Z,14.57
2022-10-18T07:12:03.968Z,14.89
2022-10-18T07:14:30.494Z,15.02
2022-10-18T07:16:59.482Z,15.00
2022-10-18T07:19:26.157Z,15.10
2022-10-18T07:21:52.731Z,15.04
2022-10-18T07:24:19.263Z,15.14
2022-10-18T07:26:45.797Z,15.06
2022-10-18T07:29:13.330Z,15.18
2022-10-18T07:31:40.881Z,15.26
2022-10-18T07:34:10.199Z,15.21
2022-10-18T07:36:37.055Z,15.11
2022-10-18T07:39:04.210Z,15.39
2022-10-18T07:41:33.411Z,15.39
2022-10-18T07:44:01.080Z,15.51
2022-10-18T07:46:27.767Z,15.59
2022-10-18T07:48:55.305Z,15.68
2022-10-18T07:51:22.237Z,15.75
2022-10-18T07:53:48.934Z,15.80
2022-10-18T07:56:19.098Z,15.94
2022-10-18T07:58:47.439Z,15.93
2022-10-18T08:01:15.170Z,16.17
2022-10-18T08:03:42.343Z,16.26
2022-10-18T08:06:11.010Z,16.36
2022-10-18T08:08:39.346Z,16.28
2022-10-18T08:11:11.592Z,16.61
2022-10-18T08:13:38.357Z,16.72
2022-10-18T08:16:11.098Z,17.00
2022-10-18T08:18:38.824Z,17.37
2022-10-18T08:21:07.818Z,17.77
2022-10-18T08:23:35.316Z,17.99
2022-10-18T08:26:07.078Z,18.06
2022-10-18T08:28:36.667Z,18.16
2022-10-18T08:31:08.465Z,18.08
2022-10-18T08:33:36.255Z,18.07
2022-10-18T08:36:07.979Z,18.27
2022-10-18T08:38:40.127Z,18.34
2022-10-18T08:41:38.787Z,18.44
2022-10-18T08:44:24.585Z,18.46
2022-10-18T08:47:34.849Z,18.57
2022-10-18T08:50:12.403Z,18.75
2022-10-18T08:52:49.648Z,19.27
2022-10-18T08:55:24.123Z,19.54
2022-10-18T08:57:51.523Z,19.94
2022-10-18T09:00:24.158Z,20.17
2022-10-18T09:02:56.618Z,20.38
2022-10-18T09:05:31.812Z,20.61
2022-10-18T09:08:26.507Z,20.86
2022-10-18T09:11:26.654Z,21.16
2022-10-18T09:14:14.659Z,21.37
2022-10-18T09:16:55.680Z,21.43
2022-10-18T09:19:22.138Z,21.56
2022-10-18T09:21:54.105Z,21.65
2022-10-18T09:24:37.544Z,21.57
2022-10-18T09:27:10.697Z,21.83
2022-10-18T09:29:49.492Z,22.09
2022-10-18T09:32:25.475Z,22.26
2022-10-18T09:34:58.728Z,22.28
2022-10-18T09:37:29.015Z,22.64
2022-10-18T09:40:20.792Z,22.76
2022-10-18T09:42:59.729Z,22.91
2022-10-18T09:45:34.599Z,23.07
2022-10-18T09:48:03.862Z,23.23
2022-10-18T09:51:02.513Z,23.29
2022-10-18T09:53:44.621Z,23.41
2022-10-18T09:56:17.234Z,23.55
2022-10-18T09:58:48.869Z,23.76
2022-10-18T10:01:29.064Z,23.91
2022-10-18T10:03:56.020Z,24.00
2022-10-18T10:06:30.363Z,24.15
2022-10-18T10:09:05.826Z,24.08
2022-10-18T10:11:45.459Z,24.30
2022-10-18T10:16:50.296Z,24.45
2022-10-18T10:19:26.431Z,24.50
2022-10-18T10:22:01.085Z,24.55
2022-10-18T10:24:49.997Z,24.56
2022-10-18T10:27:29.853Z,24.70
2022-10-18T10:30:01.550Z,24.75
2022-10-18T10:32:43.167Z,24.84
2022-10-18T10:35:35.455Z,24.84
2022-10-18T10:38:23.779Z,24.93
2022-10-18T10:40:50.566Z,24.68
2022-10-18T10:43:36.541Z,24.94
2022-10-18T10:46:21.209Z,25.06
2022-10-18T10:49:04.495Z,25.12
2022-10-18T10:51:41.452Z,25.34
2022-10-18T10:54:22.584Z,25.30
2022-10-18T10:57:04.078Z,25.42
2022-10-18T11:02:15.046Z,25.55
2022-10-18T11:04:42.513Z,25.69
2022-10-18T11:07:08.997Z,25.75
2022-10-18T11:09:51.259Z,25.84
2022-10-18T11:12:36.476Z,25.92
2022-10-18T11:15:18.367Z,26.06
2022-10-18T11:18:02.605Z,26.12
2022-10-18T11:20:40.643Z,26.10
2022-10-18T11:23:18.101Z,26.08
2022-10-18T11:26:08.416Z,26.23
2022-10-18T11:29:02.703Z,26.21
2022-10-18T11:31:38.058Z,26.22
2022-10-18T11:34:12.580Z,26.34
2022-10-18T11:37:26.361Z,26.23
2022-10-18T11:39:49.514Z,26.17
2022-10-18T11:42:28.698Z,26.10
2022-10-18T11:45:04.369Z,26.16
2022-10-18T11:47:52.260Z,26.33
2022-10-18T11:50:26.304Z,26.26
2022-10-18T11:53:17.641Z,26.42
2022-10-18T11:55:56.408Z,26.51
2022-10-18T11:58:41.613Z,26.62
2022-10-18T12:01:24.607Z,26.52
2022-10-18T12:04:01.883Z,26.47
2022-10-18T12:06:35.049Z,26.47
2022-10-18T12:09:03.418Z,26.46
2022-10-18T12:11:41.016Z,26.53
2022-10-18T12:14:38.666Z,26.38
2022-10-18T12:17:40.206Z,26.34
2022-10-18T12:20:11.276Z,26.29
2022-10-18T12:22:51.300Z,25.99
2022-10-18T12:25:19.046Z,25.74
2022-10-18T12:27:53.852Z,25.44
2022-10-18T12:30:23.678Z,25.20
2022-10-18T12:33:03.347Z,25.02
2022-10-18T12:36:00.980Z,24.91
2022-10-18T12:38:32.044Z,24.78
2022-10-18T12:40:59.284Z,24.75
2022-10-18T12:43:36.436Z,24.72
2022-10-18T12:46:12.268Z,24.69
2022-10-18T12:48:47.980Z,24.59
2022-10-18T12:51:21.460Z,24.61
2022-10-18T12:54:09.359Z,24.61
2022-10-18T12:56:42.176Z,24.50
2022-10-18T12:59:17.650Z,24.46
2022-10-18T13:01:53.164Z,24.42
2022-10-18T13:04:29.072Z,24.38
2022-10-18T13:06:59.518Z,24.40
2022-10-18T13:09:36.627Z,24.30
2022-10-18T13:12:09.266Z,24.26
2022-10-18T13:15:25.898Z,24.14
2022-10-18T13:18:10.130Z,23.98
2022-10-18T13:21:07.164Z,23.92
2022-10-18T13:23:57.466Z,23.86
2022-10-18T13:26:54.138Z,23.79
2022-10-18T13:30:05.627Z,23.80
2022-10-18T13:32:52.535Z,23.84
2022-10-18T13:35:51.293Z,23.85
2022-10-18T13:38:45.811Z,23.84
2022-10-18T13:41:19.668Z,23.88
2022-10-18T13:44:11.583Z,23.86
2022-10-18T13:46:38.087Z,23.80
2022-10-18T13:49:23.282Z,23.79
2022-10-18T13:51:59.974Z,23.83
2022-10-18T13:54:55.609Z,23.84
2022-10-18T13:57:22.108Z,23.93
2022-10-18T14:00:07.510Z,24.02
2022-10-18T14:02:51.814Z,23.96
2022-10-18T14:05:24.969Z,23.83
2022-10-18T14:07:59.503Z,23.84
2022-10-18T14:11:00.886Z,23.75
2022-10-18T14:13:46.696Z,23.53
2022-10-18T14:16:39.202Z,23.31
2022-10-18T14:19:17.508Z,22.96
2022-10-18T14:21:53.922Z,22.96
2022-10-18T14:24:24.272Z,22.80
2022-10-18T14:27:24.767Z,22.65
2022-10-18T14:30:10.550Z,22.29
2022-10-18T14:32:37.210Z,22.14
2022-10-18T14:37:54.919Z,21.84
2022-10-18T14:40:28.247Z,21.63
2022-10-18T14:42:54.758Z,21.58
2022-10-18T14:45:23.031Z,21.54
2022-10-18T14:47:49.820Z,21.49
2022-10-18T14:50:30.526Z,21.43
2022-10-18T14:52:57.564Z,21.42
2022-10-18T14:55:28.628Z,21.39
2022-10-18T14:57:55.326Z,21.25
2022-10-18T15:00:27.044Z,21.23
2022-10-18T15:02:53.825Z,21.11
2022-10-18T15:05:24.146Z,21.18
2022-10-18T15:07:52.263Z,20.79
2022-10-18T15:10:25.609Z,21.09
2022-10-18T15:13:10.115Z,21.02
2022-10-18T15:15:37.869Z,20.96
2022-10-18T15:18:05.331Z,21.06
2022-10-18T15:20:39.308Z,21.04
2022-10-18T15:23:35.046Z,20.98
2022-10-18T15:26:07.202Z,21.01
2022-10-18T15:28:49.994Z,21.01
2022-10-18T15:31:27.726Z,21.05
2022-10-18T15:34:07.435Z,20.76
2022-10-18T15:36:35.302Z,20.93
2022-10-18T15:39:13.812Z,20.99
2022-10-18T15:41:42.634Z,20.99
2022-10-18T15:44:22.581Z,20.87
2022-10-18T15:46:52.812Z,20.83
2022-10-18T15:49:25.375Z,20.88
2022-10-18T15:52:32.560Z,20.84
2022-10-18T15:55:22.667Z,20.82
2022-10-18T15:57:49.464Z,20.79
2022-10-18T16:00:19.841Z,20.77
2022-10-18T16:02:46.790Z,20.60
2022-10-18T16:05:19.029Z,20.56
2022-10-18T16:07:46.478Z,20.58
2022-10-18T16:10:14.040Z,20.45
2022-10-18T16:12:40.882Z,20.47
2022-10-18T16:15:08.252Z,20.42
2022-10-18T16:17:35.251Z,20.35
2022-10-18T16:20:02.074Z,20.30
2022-10-18T16:22:29.538Z,19.89
2022-10-18T16:24:57.729Z,20.19
2022-10-18T16:27:25.041Z,20.00
2022-10-18T16:29:51.540Z,20.04
2022-10-18T16:32:18.042Z,19.99
2022-10-18T16:34:44.587Z,19.88
2022-10-18T16:37:11.122Z,19.90
2022-10-18T16:39:37.627Z,19.90
2022-10-18T16:42:04.148Z,19.85
2022-10-18T16:44:30.681Z,19.81
2022-10-18T16:46:57.196Z,19.66
2022-10-18T16:49:25.955Z,19.68
2022-10-18T16:51:53.663Z,19.61
2022-10-18T16:54:20.325Z,19.52
2022-10-18T16:56:47.839Z,19.35
2022-10-18T16:59:24.135Z,19.39
2022-10-18T17:01:50.692Z,19.26
2022-10-18T17:04:17.264Z,19.24
2022-10-18T17:06:43.943Z,19.11
2022-10-18T17:09:14.187Z,19.15
2022-10-18T17:11:40.960Z,19.02
2022-10-18T17:14:07.621Z,19.03
2022-10-18T17:16:37.027Z,18.87
2022-10-18T17:19:07.092Z,18.92
2022-10-18T17:21:34.018Z,18.79
2022-10-18T17:24:06.039Z,18.85
2022-10-18T17:26:33.681Z,18.83
2022-10-18T17:29:03.791Z,18.76
2022-10-18T17:31:31.585Z,18.71
2022-10-18T17:34:01.371Z,18.66
2022-10-18T17:36:27.928Z,18.64
2022-10-18T17:38:54.706Z,18.62
2022-10-18T17:41:21.620Z,18.55
2022-10-18T17:43:48.627Z,18.56
2022-10-18T17:46:16.271Z,18.56
2022-10-18T17:48:43.125Z,18.44
2022-10-18T17:51:11.329Z,18.52
2022-10-18T17:53:38.289Z,18.45
2022-10-18T17:56:06.160Z,18.34
2022-10-18T17:58:32.826Z,18.31
2022-10-18T18:01:12.991Z,18.29
2022-10-18T18:03:40.285Z,18.26
2022-10-18T18:06:34.834Z,18.25
2022-10-18T18:09:07.691Z,18.19
2022-10-18T18:11:36.055Z,18.19
2022-10-18T18:14:02.757Z,18.14
2022-10-18T18:16:30.183Z,18.11
2022-10-18T18:18:58.184Z,18.08
2022-10-18T18:21:25.881Z,18.07
2022-10-18T18:23:53.246Z,17.92
2022-10-18T18:26:20.650Z,18.04
2022-10-18T18:28:48.217Z,18.03
2022-10-18T18:31:23.421Z,18.11
2022-10-18T18:33:51.716Z,18.11
2022-10-18T18:36:19.135Z,18.05
2022-10-18T18:38:46.719Z,18.04
2022-10-18T18:41:17.673Z,18.08
2022-10-18T18:43:49.315Z,18.08
2022-10-18T18:46:15.810Z,18.09
2022-10-18T18:48:42.939Z,18.12
2022-10-18T18:51:13.060Z,18.13
2022-10-18T18:53:40.781Z,18.09
2022-10-18T18:56:10.211Z,18.13
2022-10-18T18:58:39.155Z,18.21
2022-10-18T19:01:14.845Z,18.22
2022-10-18T19:03:42.819Z,18.21
2022-10-18T19:06:12.988Z,18.23
2022-10-18T19:08:40.245Z,18.25
2022-10-18T19:11:09.341Z,18.24
2022-10-18T19:13:36.301Z,18.23
2022-10-18T19:16:18.201Z,18.28
2022-10-18T19:18:51.728Z,18.16
2022-10-18T19:21:18.341Z,18.25
2022-10-18T19:23:44.873Z,18.21
2022-10-18T19:26:24.817Z,18.28
2022-10-18T19:28:51.418Z,18.27
2022-10-18T19:31:18.095Z,18.26
2022-10-18T19:33:48.321Z,18.16
2022-10-18T19:36:22.709Z,18.24
2022-10-18T19:38:49.321Z,18.23
2022-10-18T19:41:16.104Z,18.15
2022-10-18T19:43:42.650Z,18.23
2022-10-18T19:46:09.327Z,18.13
2022-10-18T19:48:35.925Z,18.22
2022-10-18T19:51:09.026Z,18.20
2022-10-18T19:53:36.432Z,17.84
2022-10-18T19:56:05.277Z,18.05
2022-10-18T19:58:32.525Z,18.13
2022-10-18T20:01:00.266Z,18.07
2022-10-18T20:03:30.416Z,18.02
2022-10-18T20:06:02.049Z,18.01
2022-10-18T20:08:31.696Z,17.72
2022-10-18T20:11:06.021Z,17.90
2022-10-18T20:13:33.297Z,17.79
2022-10-18T20:15:59.896Z,17.83
2022-10-18T20:18:26.602Z,17.77
2022-10-18T20:20:53.647Z,17.41
2022-10-18T20:23:20.533Z,17.69
2022-10-18T20:26:01.030Z,17.63
2022-10-18T20:28:28.706Z,17.59
2022-10-18T20:31:06.660Z,17.53
2022-10-18T20:33:35.841Z,17.43
2022-10-18T20:36:08.241Z,17.11
2022-10-18T20:38:37.407Z,17.46
2022-10-18T20:41:12.752Z,17.43
2022-10-18T20:43:40.118Z,17.44
2022-10-18T20:46:07.839Z,17.46
2022-10-18T20:48:34.764Z,17.46
2022-10-18T20:51:10.666Z,17.45
2022-10-18T20:53:37.542Z,17.46
2022-10-18T20:56:04.155Z,17.46
2022-10-18T20:58:30.967Z,17.44
2022-10-18T21:01:14.464Z,17.43
2022-10-18T21:03:44.867Z,17.41
2022-10-18T21:06:23.620Z,17.39
2022-10-18T21:08:54.886Z,17.28
2022-10-18T21:11:21.957Z,17.36
2022-10-18T21:13:52.299Z,17.30
2022-10-18T21:16:19.444Z,17.24
2022-10-18T21:18:46.524Z,17.28
2022-10-18T21:21:21.174Z,17.30
2022-10-18T21:23:47.703Z,17.17
2022-10-18T21:26:25.916Z,17.16
2022-10-18T21:28:56.566Z,17.22
2022-10-18T21:31:29.182Z,16.96
2022-10-18T21:33:58.741Z,16.89
2022-10-18T21:36:26.384Z,17.07
2022-10-18T21:38:53.159Z,17.03
2022-10-18T21:41:21.024Z,16.99
2022-10-18T21:43:50.463Z,16.94
2022-10-18T21:46:18.332Z,16.90
2022-10-18T21:48:46.942Z,16.85
2022-10-18T21:51:15.858Z,16.85
2022-10-18T21:53:44.091Z,16.80
2022-10-18T21:56:13.238Z,16.77
2022-10-18T21:58:40.620Z,16.71
2022-10-18T22:01:13.201Z,16.64
2022-10-18T22:03:40.542Z,16.58
2022-10-18T22:06:13.502Z,16.54
2022-10-18T22:08:47.586Z,16.50
2022-10-18T22:11:14.670Z,16.41
2022-10-18T22:13:41.699Z,16.42
2022-10-18T22:16:09.726Z,16.40
2022-10-18T22:18:36.323Z,16.35
2022-10-18T22:21:07.387Z,16.38
2022-10-18T22:23:38.722Z,16.37
2022-10-18T22:26:11.400Z,16.27
2022-10-18T22:28:39.116Z,16.37
2022-10-18T22:31:06.119Z,16.26
2022-10-18T22:33:32.759Z,16.29
2022-10-18T22:35:59.335Z,16.26
2022-10-18T22:38:25.877Z,16.25
2022-10-18T22:40:52.413Z,16.20
2022-10-18T22:43:18.988Z,16.22
2022-10-18T22:45:45.481Z,16.19
2022-10-18T22:48:12.087Z,16.19
2022-10-18T22:50:38.629Z,16.20
2022-10-18T22:53:05.189Z,16.21
2022-10-18T22:55:31.685Z,16.23
2022-10-18T22:57:58.169Z,16.20
2022-10-18T23:00:24.760Z,16.23
2022-10-18T23:02:51.528Z,16.21
2022-10-18T23:05:18.074Z,16.16
2022-10-18T23:07:49.219Z,16.26
2022-10-18T23:10:15.847Z,16.27
2022-10-18T23:12:42.448Z,16.13
2022-10-18T23:15:09.440Z,16.20
2022-10-18T23:17:36.368Z,16.30
2022-10-18T23:20:03.902Z,16.25
2022-10-18T23:22:30.488Z,16.21
2022-10-18T23:24:57.105Z,15.95
2022-10-18T23:27:23.628Z,16.30
2022-10-18T23:29:50.131Z,16.21
2022-10-18T23:32:16.700Z,16.13
2022-10-18T23:34:43.249Z,16.28
2022-10-18T23:37:09.783Z,16.25
2022-10-18T23:39:36.296Z,16.18
2022-10-18T23:42:02.866Z,16.11
2022-10-18T23:44:29.386Z,16.01
2022-10-18T23:46:56.021Z,15.87
2022-10-18T23:49:22.523Z,16.04
2022-10-18T23:51:49.143Z,15.98
2022-10-18T23:54:15.667Z,15.93
2022-10-18T23:56:42.279Z,15.84
2022-10-18T23:59:08.808Z,15.85
